Sac City, IA

11:27 PM CDT on October 30, 2014 (GMT -0500)
Cherokee Municipal | Change Station
CLOSE
Current Station
Airport
Location: Cherokee,
Elevation: 1227 ft
Nearby Weather Stations
Active Advisory: Special Statement Active Notice: Public Information Statement

Elev 1227 ft 42.73 °N, 95.56 °W | Updated 12 minutes ago

Overcast
Overcast
34 °F
Feels Like 24 °F
N
15
Wind Variable Wind from North
Gusts 32 mph

Today
High -- | Low -- °F
--% Chance of Precip.
Yesterday
High -- | Low -- °F
Precip. -- in
7:50 AM 6:15 PM
Waxing Crescent, 51% visible
Pressure 30.40 in
Visibility 10.0 miles
Clouds Overcast 2400 ft
Windchill 24 °F
Dew Point 25 °F
Humidity 70%
Rainfall 0.00 in
Snow Depth Not available.
UV 0 out of 12
Pollen 1.00 out of 12
Air Quality Not available.
Flu Activity Not available.
METAR KCKP 310415Z AUTO 36013G28KT 10SM OVC024 01/M04 A3040 RMK AO2 T00121037

More Conditions Fewer Conditions

Pressure 30.40 in
Visibility 10.0 miles
Clouds Overcast 2400 ft
Windchill 24 °F
Dew Point 25 °F
Humidity 70%
Rainfall 0.00 in
Snow Depth Not available.
UV 0 out of 12
Pollen 1.00 out of 12
Air Quality Not available.
Flu Activity Not available.
METAR KCKP 310415Z AUTO 36013G28KT 10SM OVC024 01/M04 A3040 RMK AO2 T00121037

More Conditions Fewer Conditions

10-Day Weather Forecast

Almanac

Astronomy

Oct. 30, 2014 Rise Set
Actual Time
Civil Twilight
Nautical Twilight
Astronomical Twilight
Moon
Length of Visible Light
Length of Day
Tomorrow will be .
, % of the Moon is Illuminated

Today's Extremes

State Highs State Lows

Community

WunderPhotos

Upload Photos

1,766,565 photos uploaded!

WunderBlogs® & News

Nearby

Air Quality

  Air Quality AQ Index Pollutant
Not available.

Snow Depth

Station Depth Elevation

Earthquake Activity

City Distance Mag. Time & Date
Minimum magnitude displayed is 2.5.

Coastal Water Temperatures

Place Temperature

Nearby Weather Stations